createdAt,value
2023-04-02T00:00:10.973Z,85.08
2023-04-02T00:02:48.151Z,84.94
2023-04-02T00:05:16.732Z,84.39
2023-04-02T00:07:49.377Z,84.69
2023-04-02T00:10:27.167Z,84.39
2023-04-02T00:13:09.470Z,83.60
2023-04-02T00:15:40.501Z,83.11
2023-04-02T00:18:18.697Z,83.20
2023-04-02T00:20:53.108Z,82.91
2023-04-02T00:23:22.441Z,83.53
2023-04-02T00:25:51.013Z,83.26
2023-04-02T00:28:22.982Z,83.66
2023-04-02T00:30:58.522Z,83.71
2023-04-02T00:33:28.931Z,83.01
2023-04-02T00:35:57.531Z,83.15
2023-04-02T00:38:32.987Z,84.02
2023-04-02T00:41:06.365Z,84.34
2023-04-02T00:43:37.415Z,83.68
2023-04-02T00:46:14.272Z,84.13
2023-04-02T00:48:46.006Z,84.13
2023-04-02T00:51:18.120Z,84.04
2023-04-02T00:53:49.246Z,84.45
2023-04-02T00:56:29.345Z,84.21
2023-04-02T00:58:58.612Z,84.22
2023-04-02T01:01:35.780Z,83.73
2023-04-02T01:04:25.812Z,83.31
2023-04-02T01:06:54.516Z,83.03
2023-04-02T01:09:44.988Z,83.57
2023-04-02T01:12:19.252Z,84.61
2023-04-02T01:15:08.451Z,83.76
2023-04-02T01:18:18.157Z,83.79
2023-04-02T01:21:11.951Z,84.05
2023-04-02T01:24:01.513Z,84.14
2023-04-02T01:26:58.116Z,85.20
2023-04-02T01:29:51.308Z,85.15
2023-04-02T01:32:22.765Z,85.55
2023-04-02T01:34:52.599Z,85.43
2023-04-02T01:37:46.870Z,85.18
2023-04-02T01:40:41.898Z,85.38
2023-04-02T01:43:33.278Z,86.07
2023-04-02T01:46:23.520Z,85.63
2023-04-02T01:48:54.096Z,85.61
2023-04-02T01:51:31.851Z,86.31
2023-04-02T01:54:06.317Z,86.73
2023-04-02T01:56:35.674Z,86.39
2023-04-02T01:59:06.032Z,86.25
2023-04-02T02:01:42.732Z,86.44
2023-04-02T02:04:16.208Z,86.88
2023-04-02T02:06:45.336Z,86.70
2023-04-02T02:09:32.785Z,87.12
2023-04-02T02:12:03.061Z,87.49
2023-04-02T02:14:32.027Z,86.92
2023-04-02T02:17:02.518Z,86.77
2023-04-02T02:19:42.664Z,87.37
2023-04-02T02:22:31.297Z,86.87
2023-04-02T02:25:03.016Z,86.66
2023-04-02T02:27:42.895Z,87.04
2023-04-02T02:30:15.654Z,87.22
2023-04-02T02:32:53.964Z,87.38
2023-04-02T02:35:29.287Z,87.67
2023-04-02T02:38:24.459Z,87.53
2023-04-02T02:40:58.528Z,87.38
2023-04-02T02:43:27.267Z,87.78
2023-04-02T02:45:57.770Z,88.28
2023-04-02T02:48:37.403Z,87.46
2023-04-02T02:51:21.940Z,88.32
2023-04-02T02:53:54.612Z,87.71
2023-04-02T02:56:24.894Z,87.71
2023-04-02T02:58:53.815Z,88.84
2023-04-02T03:01:23.059Z,88.75
2023-04-02T03:03:54.937Z,88.62
2023-04-02T03:06:24.591Z,88.86
2023-04-02T03:09:21.624Z,88.50
2023-04-02T03:12:00.059Z,88.81
2023-04-02T03:14:44.233Z,88.08
2023-04-02T03:17:21.118Z,88.54
2023-04-02T03:19:54.701Z,89.84
2023-04-02T03:22:42.924Z,88.91
2023-04-02T03:25:20.009Z,89.19
2023-04-02T03:27:54.053Z,87.29
2023-04-02T03:30:43.050Z,88.29
2023-04-02T03:33:22.219Z,88.53
2023-04-02T03:36:01.641Z,88.98
2023-04-02T03:38:44.887Z,88.39
2023-04-02T03:41:31.771Z,88.32
2023-04-02T03:44:07.812Z,88.82
2023-04-02T03:46:48.122Z,88.94
2023-04-02T03:49:42.531Z,89.15
2023-04-02T03:52:12.401Z,88.90
2023-04-02T03:54:53.658Z,88.62
2023-04-02T03:57:33.583Z,89.35
2023-04-02T04:00:05.636Z,88.78
2023-04-02T04:02:52.832Z,89.29
2023-04-02T04:05:35.812Z,88.68
2023-04-02T04:08:16.363Z,87.86
2023-04-02T04:10:45.696Z,87.89
2023-04-02T04:13:18.725Z,88.73
2023-04-02T04:16:00.501Z,87.17
2023-04-02T04:18:47.812Z,86.94
2023-04-02T04:21:50.962Z,86.95
2023-04-02T04:24:27.395Z,85.39
2023-04-02T04:27:09.548Z,85.65
2023-04-02T04:30:03.990Z,86.56
2023-04-02T04:32:50.527Z,86.04
2023-04-02T04:35:35.609Z,85.90
2023-04-02T04:38:32.678Z,85.86
2023-04-02T04:41:15.043Z,86.52
2023-04-02T04:43:52.175Z,85.60
2023-04-02T04:46:33.609Z,85.57
2023-04-02T04:49:26.305Z,85.59
2023-04-02T04:52:22.755Z,85.65
2023-04-02T04:54:51.843Z,86.05
2023-04-02T04:57:38.365Z,84.99
2023-04-02T05:00:37.608Z,85.08
2023-04-02T05:03:31.866Z,84.94
2023-04-02T05:06:13.175Z,84.68
2023-04-02T05:08:48.044Z,84.96
2023-04-02T05:11:32.372Z,84.62
2023-04-02T05:14:16.673Z,84.16
2023-04-02T05:17:05.330Z,84.16
2023-04-02T05:19:56.992Z,83.62
2023-04-02T05:22:42.742Z,83.71
2023-04-02T05:25:18.754Z,83.34
2023-04-02T05:28:05.794Z,83.80
2023-04-02T05:30:46.698Z,84.11
2023-04-02T05:33:27.951Z,83.18
2023-04-02T05:36:01.538Z,83.81
2023-04-02T05:38:35.545Z,82.26
2023-04-02T05:41:16.925Z,82.06
2023-04-02T05:43:48.640Z,81.89
2023-04-02T05:46:21.505Z,81.13
2023-04-02T05:48:57.168Z,80.72
2023-04-02T05:51:38.821Z,80.16
2023-04-02T05:54:21.240Z,79.97
2023-04-02T05:56:55.382Z,80.17
2023-04-02T05:59:29.918Z,79.58
2023-04-02T06:02:03.556Z,78.67
2023-04-02T06:04:51.484Z,78.40
2023-04-02T06:07:28.379Z,77.66
2023-04-02T06:10:17.912Z,77.94
2023-04-02T06:13:07.630Z,77.93
2023-04-02T06:15:38.610Z,78.05
2023-04-02T06:18:24.143Z,78.66
2023-04-02T06:20:53.781Z,78.95
2023-04-02T06:23:22.234Z,77.64
2023-04-02T06:25:59.305Z,77.16
2023-04-02T06:28:48.917Z,76.08
2023-04-02T06:31:35.059Z,76.33
2023-04-02T06:34:07.608Z,74.57
2023-04-02T06:36:36.492Z,74.29
2023-04-02T06:39:09.242Z,73.94
2023-04-02T06:41:37.729Z,72.63
2023-04-02T06:44:16.412Z,72.90
2023-04-02T06:46:57.942Z,72.42
2023-04-02T06:49:40.227Z,71.24
2023-04-02T06:52:24.244Z,71.93
2023-04-02T06:54:53.517Z,71.79
2023-04-02T06:57:22.759Z,70.79
2023-04-02T06:59:51.933Z,70.92
2023-04-02T07:02:37.533Z,70.63
2023-04-02T07:05:09.423Z,71.29
2023-04-02T07:07:38.664Z,72.25
2023-04-02T07:10:09.313Z,71.28
2023-04-02T07:12:38.466Z,70.73
2023-04-02T07:15:07.296Z,71.74
2023-04-02T07:17:35.762Z,70.86
2023-04-02T07:20:04.437Z,72.61
2023-04-02T07:22:32.914Z,72.69
2023-04-02T07:25:01.634Z,72.93
2023-04-02T07:27:30.793Z,72.03
2023-04-02T07:29:59.088Z,74.43
2023-04-02T07:32:27.249Z,72.72
2023-04-02T07:34:55.857Z,73.74
2023-04-02T07:37:24.021Z,72.52
2023-04-02T07:39:52.292Z,72.46
2023-04-02T07:42:21.152Z,72.66
2023-04-02T07:44:49.981Z,73.41
2023-04-02T07:47:18.012Z,71.89
2023-04-02T07:49:47.055Z,72.10
2023-04-02T07:52:15.813Z,71.55
2023-04-02T07:54:44.007Z,70.08
2023-04-02T07:57:12.388Z,70.68
2023-04-02T07:59:41.743Z,70.32
2023-04-02T08:02:27.971Z,69.41
2023-04-02T08:04:56.904Z,67.60
2023-04-02T08:07:25.038Z,67.94
2023-04-02T08:09:53.162Z,68.41
2023-04-02T08:12:22.214Z,69.75
2023-04-02T08:14:50.431Z,68.62
2023-04-02T08:17:18.753Z,66.79
2023-04-02T08:19:54.769Z,66.68
2023-04-02T08:22:23.560Z,65.01
2023-04-02T08:24:52.808Z,65.74
2023-04-02T08:27:21.288Z,66.55
2023-04-02T08:29:49.648Z,65.35
2023-04-02T08:32:18.772Z,67.17
2023-04-02T08:34:46.800Z,67.32
2023-04-02T08:37:15.221Z,65.45
2023-04-02T08:39:43.949Z,67.75
2023-04-02T08:42:27.358Z,68.76
2023-04-02T08:45:25.487Z,68.36
2023-04-02T08:48:10.101Z,68.29
2023-04-02T08:50:41.762Z,67.79
2023-04-02T08:53:22.961Z,67.86
2023-04-02T08:56:06.110Z,68.40
2023-04-02T08:58:54.441Z,69.17
2023-04-02T09:01:45.065Z,68.79
2023-04-02T09:04:24.822Z,68.91
2023-04-02T09:06:56.355Z,68.83
2023-04-02T09:09:25.489Z,69.82
2023-04-02T09:12:01.340Z,69.55
2023-04-02T09:14:52.690Z,69.56
2023-04-02T09:17:24.980Z,70.17
2023-04-02T09:20:03.417Z,70.43
2023-04-02T09:22:34.126Z,68.94
2023-04-02T09:25:05.683Z,69.25
2023-04-02T09:27:36.551Z,68.97
2023-04-02T09:30:32.494Z,69.28
2023-04-02T09:33:07.965Z,68.25
2023-04-02T09:35:51.458Z,67.50
2023-04-02T09:38:28.391Z,66.14
2023-04-02T09:41:07.566Z,66.83
2023-04-02T09:43:38.470Z,66.79
2023-04-02T09:46:22.717Z,66.46
2023-04-02T09:48:56.038Z,67.00
2023-04-02T09:51:26.821Z,67.03
2023-04-02T09:54:04.362Z,65.24
2023-04-02T09:56:35.493Z,65.19
2023-04-02T09:59:13.298Z,66.50
2023-04-02T10:01:47.830Z,66.64
2023-04-02T10:04:45.135Z,65.60
2023-04-02T10:07:34.597Z,65.15
2023-04-02T10:10:16.699Z,64.46
2023-04-02T10:12:50.325Z,63.97
2023-04-02T10:15:27.637Z,64.45
2023-04-02T10:18:25.872Z,64.61
2023-04-02T10:20:56.438Z,63.98
2023-04-02T10:23:29.522Z,61.64
2023-04-02T10:26:53.073Z,62.31
2023-04-02T10:29:27.212Z,63.50
2023-04-02T10:32:02.459Z,62.24
2023-04-02T10:34:45.769Z,61.84
2023-04-02T10:37:27.586Z,62.54
2023-04-02T10:40:25.703Z,60.02
2023-04-02T10:43:13.293Z,61.50
2023-04-02T10:45:49.394Z,61.55
2023-04-02T10:48:33.365Z,58.42
2023-04-02T10:51:07.419Z,59.17
2023-04-02T10:54:01.576Z,59.35
2023-04-02T10:56:44.098Z,59.64
2023-04-02T10:59:28.073Z,58.32
2023-04-02T11:01:58.275Z,56.98
2023-04-02T11:04:41.963Z,57.16
2023-04-02T11:07:22.695Z,55.63
2023-04-02T11:09:56.428Z,54.28
2023-04-02T11:12:44.606Z,54.95
2023-04-02T11:15:20.536Z,54.47
2023-04-02T11:17:49.109Z,53.47
2023-04-02T11:20:45.916Z,53.97
2023-04-02T11:23:20.970Z,53.13
2023-04-02T11:25:49.938Z,52.52
2023-04-02T11:28:31.723Z,53.35
2023-04-02T11:31:00.987Z,52.69
2023-04-02T11:33:39.911Z,53.19
2023-04-02T11:36:48.297Z,52.00
2023-04-02T11:39:34.809Z,51.00
2023-04-02T11:42:24.966Z,51.62
2023-04-02T11:44:54.728Z,55.51
2023-04-02T11:47:25.196Z,53.08
2023-04-02T11:50:01.470Z,53.56
2023-04-02T11:52:52.978Z,54.36
2023-04-02T11:55:32.805Z,55.09
2023-04-02T11:58:22.890Z,55.64
2023-04-02T12:01:08.081Z,55.16
2023-04-02T12:03:51.599Z,57.09
2023-04-02T12:06:39.911Z,57.35
2023-04-02T12:09:38.104Z,53.50
2023-04-02T12:12:24.947Z,54.58
2023-04-02T12:14:58.313Z,56.34
2023-04-02T12:17:31.322Z,57.25
2023-04-02T12:20:08.459Z,57.65
2023-04-02T12:22:41.382Z,58.20
2023-04-02T12:25:29.455Z,57.64
2023-04-02T12:28:18.777Z,58.90
2023-04-02T12:30:48.951Z,58.83
2023-04-02T12:33:20.490Z,59.68
2023-04-02T12:36:00.156Z,61.46
2023-04-02T12:38:31.275Z,57.92
2023-04-02T12:41:03.770Z,58.50
2023-04-02T12:43:38.142Z,57.38
2023-04-02T12:46:09.058Z,58.42
2023-04-02T12:48:39.405Z,56.44
2023-04-02T12:51:07.997Z,54.25
2023-04-02T12:53:41.407Z,53.37
2023-04-02T12:56:21.432Z,53.99
2023-04-02T12:59:00.596Z,56.08
2023-04-02T13:01:31.763Z,56.30
2023-04-02T13:04:14.962Z,54.04
2023-04-02T13:06:52.226Z,53.86
2023-04-02T13:09:47.013Z,54.19
2023-04-02T13:12:40.734Z,53.22
2023-04-02T13:15:25.847Z,53.81
2023-04-02T13:18:18.755Z,53.05
2023-04-02T13:20:59.365Z,52.29
2023-04-02T13:23:30.954Z,52.55
2023-04-02T13:26:02.307Z,52.16
2023-04-02T13:28:30.996Z,53.05
2023-04-02T13:30:59.103Z,50.91
2023-04-02T13:33:27.661Z,51.00
2023-04-02T13:35:56.534Z,52.39
2023-04-02T13:38:24.687Z,51.94
2023-04-02T13:40:53.252Z,52.06
2023-04-02T13:43:21.860Z,51.80
2023-04-02T13:45:54.271Z,50.54
2023-04-02T13:48:27.045Z,50.52
2023-04-02T13:50:55.529Z,51.40
2023-04-02T13:53:33.666Z,50.78
2023-04-02T13:56:02.019Z,51.02
2023-04-02T13:58:30.623Z,50.91
2023-04-02T14:00:59.304Z,51.08
2023-04-02T14:03:28.165Z,50.17
2023-04-02T14:06:28.105Z,49.12
2023-04-02T14:09:10.333Z,51.96
2023-04-02T14:12:01.444Z,52.42
2023-04-02T14:15:12.519Z,52.97
2023-04-02T14:18:05.692Z,53.46
2023-04-02T14:21:12.558Z,56.10
2023-04-02T14:24:07.160Z,56.22
2023-04-02T14:27:23.198Z,55.75
2023-04-02T14:30:12.123Z,57.61
2023-04-02T14:33:17.799Z,59.07
2023-04-02T14:36:05.812Z,60.45
2023-04-02T14:38:49.975Z,61.97
2023-04-02T14:41:39.740Z,66.34
2023-04-02T14:44:10.729Z,70.50
2023-04-02T14:46:39.577Z,77.79
2023-04-02T14:49:35.043Z,81.02
2023-04-02T14:52:06.235Z,84.53
2023-04-02T14:54:50.192Z,87.95
2023-04-02T14:57:39.200Z,91.13
2023-04-02T15:00:33.727Z,94.34
2023-04-02T15:03:18.560Z,97.12
2023-04-02T15:05:54.451Z,97.41
2023-04-02T15:08:27.252Z,100.00
2023-04-02T15:11:06.532Z,100.00
2023-04-02T15:13:51.489Z,100.00
2023-04-02T15:16:23.473Z,100.00
2023-04-02T15:18:55.348Z,100.00
2023-04-02T15:21:57.538Z,100.00
2023-04-02T15:24:40.260Z,100.00
2023-04-02T15:27:56.440Z,100.00
2023-04-02T15:30:35.329Z,100.00
2023-04-02T15:33:23.798Z,100.00
2023-04-02T15:35:59.914Z,100.00
2023-04-02T15:38:36.351Z,100.00
2023-04-02T15:41:10.903Z,100.00
2023-04-02T15:43:56.907Z,100.00
2023-04-02T15:46:38.139Z,100.00
2023-04-02T15:49:31.909Z,100.00
2023-04-02T15:52:11.491Z,100.00
2023-04-02T15:54:58.840Z,100.00
2023-04-02T15:57:54.768Z,100.00
2023-04-02T16:00:33.557Z,100.00
2023-04-02T16:03:34.913Z,100.00
2023-04-02T16:06:34.301Z,100.00
2023-04-02T16:09:16.154Z,100.00
2023-04-02T16:11:44.880Z,100.00
2023-04-02T16:14:34.020Z,100.00
2023-04-02T16:17:23.888Z,100.00
2023-04-02T16:20:18.701Z,100.00
2023-04-02T16:23:00.588Z,100.00
2023-04-02T16:25:44.280Z,100.00
2023-04-02T16:28:28.534Z,100.00
2023-04-02T16:31:09.664Z,97.57
2023-04-02T16:34:00.037Z,95.71
2023-04-02T16:37:09.705Z,92.77
2023-04-02T16:39:59.546Z,93.16
2023-04-02T16:42:43.469Z,90.78
2023-04-02T16:45:31.407Z,87.48
2023-04-02T16:48:04.891Z,86.17
2023-04-02T16:50:39.172Z,86.58
2023-04-02T16:53:24.811Z,85.23
2023-04-02T16:56:21.127Z,89.74
2023-04-02T16:59:14.701Z,89.33
2023-04-02T17:01:54.877Z,89.30
2023-04-02T17:04:28.126Z,91.91
2023-04-02T17:07:26.378Z,88.67
2023-04-02T17:10:14.388Z,88.62
2023-04-02T17:12:51.318Z,88.62
2023-04-02T17:15:32.203Z,89.51
2023-04-02T17:18:01.933Z,84.08
2023-04-02T17:20:31.158Z,85.51
2023-04-02T17:22:59.808Z,77.91
2023-04-02T17:25:35.370Z,79.53
2023-04-02T17:28:12.135Z,77.81
2023-04-02T17:30:45.022Z,79.44
2023-04-02T17:33:18.271Z,76.42
2023-04-02T17:36:22.337Z,77.45
2023-04-02T17:39:14.335Z,78.47
2023-04-02T17:41:45.646Z,77.68
2023-04-02T17:44:42.961Z,76.28
2023-04-02T17:47:31.570Z,76.16
2023-04-02T17:50:35.359Z,76.65
2023-04-02T17:53:25.900Z,75.45
2023-04-02T17:56:32.878Z,76.94
2023-04-02T17:59:38.402Z,73.19
2023-04-02T18:02:35.776Z,71.80
2023-04-02T18:05:47.978Z,72.43
2023-04-02T18:08:53.856Z,74.48
2023-04-02T18:11:55.312Z,72.27
2023-04-02T18:15:03.097Z,71.77
2023-04-02T18:17:37.546Z,72.00
2023-04-02T18:20:20.128Z,70.77
2023-04-02T18:23:33.627Z,71.95
2023-04-02T18:26:11.451Z,72.61
2023-04-02T18:29:17.313Z,73.25
2023-04-02T18:31:46.424Z,69.13
2023-04-02T18:34:43.224Z,68.62
2023-04-02T18:37:32.051Z,70.16
2023-04-02T18:40:39.486Z,71.99
2023-04-02T18:43:20.702Z,70.93
2023-04-02T18:46:15.839Z,72.59
2023-04-02T18:48:47.276Z,71.32
2023-04-02T18:51:24.389Z,73.03
2023-04-02T18:54:15.825Z,73.37
2023-04-02T18:56:45.021Z,73.72
2023-04-02T18:59:51.967Z,71.08
2023-04-02T19:02:21.138Z,72.69
2023-04-02T19:05:02.157Z,71.76
2023-04-02T19:07:36.180Z,73.37
2023-04-02T19:10:34.407Z,73.36
2023-04-02T19:13:12.539Z,73.47
2023-04-02T19:16:11.255Z,73.61
2023-04-02T19:18:55.208Z,75.07
2023-04-02T19:21:42.372Z,73.64
2023-04-02T19:24:29.906Z,74.51
2023-04-02T19:27:12.644Z,72.02
2023-04-02T19:30:14.742Z,72.38
2023-04-02T19:33:14.128Z,70.06
2023-04-02T19:35:55.550Z,72.25
2023-04-02T19:38:53.439Z,71.97
2023-04-02T19:42:03.705Z,72.23
2023-04-02T19:44:32.056Z,71.60
2023-04-02T19:47:00.881Z,72.44
2023-04-02T19:49:33.939Z,70.75
2023-04-02T19:52:03.313Z,70.31
2023-04-02T19:54:31.934Z,70.45
2023-04-02T19:57:00.731Z,69.39
2023-04-02T19:59:30.336Z,71.38
2023-04-02T20:02:02.253Z,71.00
2023-04-02T20:04:31.184Z,69.39
2023-04-02T20:06:59.573Z,70.71
2023-04-02T20:09:29.702Z,70.56
2023-04-02T20:11:58.546Z,71.31
2023-04-02T20:14:26.989Z,69.87
2023-04-02T20:16:55.398Z,69.33
2023-04-02T20:19:24.057Z,69.65
2023-04-02T20:21:52.388Z,70.10
2023-04-02T20:24:20.769Z,69.54
2023-04-02T20:26:49.641Z,72.14
2023-04-02T20:29:18.143Z,71.81
2023-04-02T20:31:46.554Z,71.31
2023-04-02T20:34:15.313Z,71.36
2023-04-02T20:36:44.457Z,70.77
2023-04-02T20:39:19.227Z,70.95
2023-04-02T20:41:48.879Z,71.49
2023-04-02T20:44:17.455Z,70.55
2023-04-02T20:46:45.577Z,71.78
2023-04-02T20:49:14.214Z,71.29
2023-04-02T20:51:43.031Z,71.31
2023-04-02T20:54:11.422Z,71.09
2023-04-02T20:56:40.049Z,70.20
2023-04-02T20:59:08.315Z,70.32
2023-04-02T21:01:37.661Z,70.08
2023-04-02T21:04:06.251Z,70.71
2023-04-02T21:06:37.497Z,72.04
2023-04-02T21:09:08.887Z,71.29
2023-04-02T21:11:37.438Z,72.76
2023-04-02T21:14:06.543Z,72.51
2023-04-02T21:16:35.844Z,72.45
2023-04-02T21:19:07.477Z,71.47
2023-04-02T21:21:38.181Z,72.55
2023-04-02T21:24:08.306Z,71.86
2023-04-02T21:26:39.326Z,73.62
2023-04-02T21:29:07.848Z,73.46
2023-04-02T21:31:38.185Z,74.67
2023-04-02T21:34:08.561Z,73.64
2023-04-02T21:36:41.952Z,73.51
2023-04-02T21:39:15.815Z,73.11
2023-04-02T21:41:46.866Z,71.06
2023-04-02T21:44:17.983Z,72.04
2023-04-02T21:46:46.385Z,72.35
2023-04-02T21:49:17.623Z,73.04
2023-04-02T21:51:47.568Z,71.56
2023-04-02T21:54:16.194Z,72.51
2023-04-02T21:56:46.112Z,72.11
2023-04-02T21:59:16.897Z,71.69
2023-04-02T22:01:48.582Z,71.77
2023-04-02T22:04:25.711Z,71.33
2023-04-02T22:06:54.275Z,71.65
2023-04-02T22:09:25.193Z,74.14
2023-04-02T22:11:59.430Z,73.12
2023-04-02T22:14:28.585Z,73.45
2023-04-02T22:16:58.764Z,71.73
2023-04-02T22:19:28.001Z,71.38
2023-04-02T22:21:56.779Z,71.86
2023-04-02T22:24:25.306Z,72.26
2023-04-02T22:26:54.312Z,71.60
2023-04-02T22:29:22.633Z,73.10
2023-04-02T22:31:50.925Z,72.22
2023-04-02T22:34:19.711Z,71.99
2023-04-02T22:36:48.123Z,73.12
2023-04-02T22:39:17.127Z,71.71
2023-04-02T22:41:46.352Z,71.42
2023-04-02T22:44:15.885Z,72.60
2023-04-02T22:46:44.059Z,74.85
2023-04-02T22:49:15.993Z,72.71
2023-04-02T22:51:45.617Z,72.13
2023-04-02T22:54:14.056Z,73.41
2023-04-02T22:56:42.368Z,72.75
2023-04-02T22:59:10.906Z,73.05
2023-04-02T23:01:39.237Z,72.22
2023-04-02T23:04:07.669Z,70.75
2023-04-02T23:06:35.982Z,71.28
2023-04-02T23:09:04.626Z,71.55
2023-04-02T23:11:32.878Z,70.87
2023-04-02T23:14:01.400Z,69.84
2023-04-02T23:16:30.013Z,70.72
2023-04-02T23:18:58.996Z,71.38
2023-04-02T23:21:27.367Z,72.33
2023-04-02T23:23:56.370Z,70.59
2023-04-02T23:26:29.454Z,70.60
2023-04-02T23:29:00.669Z,70.91
2023-04-02T23:31:29.831Z,69.33
2023-04-02T23:33:58.691Z,69.23
2023-04-02T23:36:35.946Z,68.49
2023-04-02T23:39:10.645Z,69.66
2023-04-02T23:41:40.939Z,69.06
2023-04-02T23:44:10.407Z,69.02
2023-04-02T23:46:38.706Z,67.72
2023-04-02T23:49:08.111Z,68.94
2023-04-02T23:51:36.419Z,68.57
2023-04-02T23:54:04.816Z,69.09
2023-04-02T23:56:33.054Z,68.55
2023-04-02T23:59:01.550Z,70.07
